createdAt,value
2022-12-23T00:02:30.244Z,33.55
2022-12-23T00:05:38.202Z,32.28
2022-12-23T00:08:42.041Z,33.23
2022-12-23T00:12:04.624Z,34.30
2022-12-23T00:15:07.525Z,34.15
2022-12-23T00:18:10.131Z,34.17
2022-12-23T00:21:16.470Z,33.95
2022-12-23T00:24:19.160Z,35.13
2022-12-23T00:27:21.469Z,32.35
2022-12-23T00:30:24.535Z,35.03
2022-12-23T00:33:29.749Z,33.72
2022-12-23T00:36:32.492Z,32.25
2022-12-23T00:39:55.166Z,31.13
2022-12-23T00:42:59.873Z,31.27
2022-12-23T00:46:02.204Z,32.85
2022-12-23T00:49:23.887Z,32.95
2022-12-23T00:52:27.133Z,32.47
2022-12-23T00:55:30.502Z,32.83
2022-12-23T00:58:32.824Z,31.48
2022-12-23T01:01:54.508Z,32.65
2022-12-23T01:05:15.432Z,31.48
2022-12-23T01:08:18.014Z,33.35
2022-12-23T01:11:20.335Z,30.83
2022-12-23T01:14:23.500Z,28.50
2022-12-23T01:17:25.852Z,31.67
2022-12-23T01:20:28.523Z,32.20
2022-12-23T01:23:31.278Z,30.95
2022-12-23T01:26:34.072Z,29.67
2022-12-23T01:29:36.420Z,29.95
2022-12-23T01:32:39.020Z,29.87
2022-12-23T01:35:41.340Z,28.50
2022-12-23T01:38:44.044Z,29.23
2022-12-23T01:42:04.871Z,28.80
2022-12-23T01:45:16.188Z,28.17
2022-12-23T01:48:21.957Z,28.87
2022-12-23T01:51:30.008Z,26.35
2022-12-23T01:54:33.023Z,27.75
2022-12-23T01:57:40.112Z,27.70
2022-12-23T02:01:01.455Z,26.67
2022-12-23T02:04:09.699Z,29.37
2022-12-23T02:07:32.100Z,26.25
2022-12-23T02:10:52.217Z,28.30
2022-12-23T02:14:38.080Z,28.03
2022-12-23T02:18:11.393Z,27.58
2022-12-23T02:21:22.968Z,29.25
2022-12-23T02:24:59.317Z,30.60
2022-12-23T02:28:42.463Z,31.12
2022-12-23T02:31:58.253Z,30.20
2022-12-23T02:35:09.587Z,30.17
2022-12-23T02:38:20.888Z,31.87
2022-12-23T02:41:31.506Z,33.53
2022-12-23T02:44:45.069Z,31.58
2022-12-23T02:47:55.137Z,32.00
2022-12-23T02:51:00.265Z,33.92
2022-12-23T02:54:07.117Z,34.15
2022-12-23T02:57:12.722Z,33.10
2022-12-23T03:00:16.054Z,35.38
2022-12-23T03:03:21.143Z,33.67
2022-12-23T03:06:29.274Z,34.88
2022-12-23T03:09:56.081Z,36.83
2022-12-23T03:13:10.042Z,35.00
2022-12-23T03:16:15.611Z,35.72
2022-12-23T03:19:30.047Z,35.47
2022-12-23T03:22:38.151Z,38.47
2022-12-23T03:25:53.757Z,37.30
2022-12-23T03:29:03.829Z,37.70
2022-12-23T03:32:08.242Z,38.17
2022-12-23T03:35:15.809Z,39.30
2022-12-23T03:38:19.384Z,37.75
2022-12-23T03:41:27.988Z,37.65
2022-12-23T03:44:35.454Z,39.25
2022-12-23T03:47:46.808Z,38.95
2022-12-23T03:50:53.735Z,38.00
2022-12-23T03:54:07.825Z,40.55
2022-12-23T03:57:12.306Z,41.42
2022-12-23T04:00:15.023Z,40.42
2022-12-23T04:03:26.332Z,43.38
2022-12-23T04:06:34.132Z,43.20
2022-12-23T04:09:37.903Z,40.30
2022-12-23T04:12:40.647Z,40.40
2022-12-23T04:15:43.465Z,37.65
2022-12-23T04:18:45.869Z,36.75
2022-12-23T04:21:48.526Z,41.57
2022-12-23T04:24:50.989Z,41.85
2022-12-23T04:27:53.646Z,40.47
2022-12-23T04:30:56.002Z,36.45
2022-12-23T04:33:58.730Z,38.83
2022-12-23T04:37:01.163Z,38.73
2022-12-23T04:40:04.732Z,38.03
2022-12-23T04:43:07.084Z,40.88
2022-12-23T04:46:09.814Z,36.45
2022-12-23T04:49:12.154Z,38.17
2022-12-23T04:52:14.857Z,35.73
2022-12-23T04:55:17.187Z,32.38
2022-12-23T04:58:22.162Z,32.60
2022-12-23T05:01:24.635Z,28.40
2022-12-23T05:04:27.467Z,32.35
2022-12-23T05:07:29.941Z,32.43
2022-12-23T05:10:32.673Z,34.00
2022-12-23T05:13:35.070Z,32.67
2022-12-23T05:16:38.050Z,32.20
2022-12-23T05:19:40.403Z,34.80
2022-12-23T05:22:43.052Z,33.33
2022-12-23T05:25:51.803Z,32.70
2022-12-23T05:28:55.088Z,32.60
2022-12-23T05:31:57.544Z,29.02
2022-12-23T05:35:00.182Z,31.50
2022-12-23T05:38:03.385Z,30.77
2022-12-23T05:41:06.344Z,30.52
2022-12-23T05:44:08.654Z,28.50
2022-12-23T05:47:11.667Z,27.35
2022-12-23T05:50:14.253Z,25.20
2022-12-23T05:53:17.100Z,28.40
2022-12-23T05:56:19.484Z,27.17
2022-12-23T05:59:23.572Z,27.40
2022-12-23T06:02:28.831Z,25.27
2022-12-23T06:05:31.567Z,25.80
2022-12-23T06:08:33.998Z,25.17
2022-12-23T06:11:36.641Z,24.70
2022-12-23T06:14:38.968Z,26.65
2022-12-23T06:17:41.752Z,25.05
2022-12-23T06:20:48.065Z,26.67
2022-12-23T06:23:50.766Z,22.03
2022-12-23T06:26:57.081Z,24.25
2022-12-23T06:30:00.256Z,25.62
2022-12-23T06:33:02.535Z,22.73
2022-12-23T06:36:05.721Z,24.12
2022-12-23T06:39:10.435Z,22.00
2022-12-23T06:42:13.047Z,23.33
2022-12-23T06:45:15.378Z,24.23
2022-12-23T06:48:18.074Z,23.77
2022-12-23T06:51:20.458Z,24.23
2022-12-23T06:54:23.087Z,24.77
2022-12-23T06:57:25.370Z,25.35
2022-12-23T07:00:28.057Z,24.55
2022-12-23T07:03:30.475Z,24.33
2022-12-23T07:06:33.130Z,24.42
2022-12-23T07:09:35.487Z,23.67
2022-12-23T07:12:38.632Z,23.95
2022-12-23T07:15:40.982Z,23.70
2022-12-23T07:18:43.929Z,22.30
2022-12-23T07:21:46.236Z,22.05
2022-12-23T07:24:48.845Z,25.30
2022-12-23T07:27:55.232Z,22.17
2022-12-23T07:30:58.080Z,23.80
2022-12-23T07:34:00.504Z,20.73
2022-12-23T07:37:03.145Z,20.67
2022-12-23T07:40:08.807Z,21.17
2022-12-23T07:43:11.827Z,20.75
2022-12-23T07:46:14.290Z,21.83
2022-12-23T07:49:17.034Z,19.85
2022-12-23T07:52:19.527Z,21.65
2022-12-23T07:55:22.545Z,20.90
2022-12-23T07:58:25.225Z,19.87
2022-12-23T08:01:27.949Z,19.23
2022-12-23T08:04:30.658Z,19.15
2022-12-23T08:07:33.043Z,20.58
2022-12-23T08:10:35.746Z,20.17
2022-12-23T08:13:40.083Z,19.48
2022-12-23T08:16:44.261Z,18.20
2022-12-23T08:19:47.889Z,21.30
2022-12-23T08:22:50.553Z,23.10
2022-12-23T08:26:08.144Z,22.33
2022-12-23T08:29:10.711Z,22.17
2022-12-23T08:32:13.079Z,22.73
2022-12-23T08:35:15.964Z,22.70
2022-12-23T08:38:18.352Z,23.38
2022-12-23T08:41:25.024Z,22.93
2022-12-23T08:44:28.142Z,24.02
2022-12-23T08:47:30.887Z,22.20
2022-12-23T08:50:40.717Z,22.55
2022-12-23T08:53:43.508Z,23.70
2022-12-23T08:56:45.810Z,25.50
2022-12-23T08:59:48.445Z,25.05
2022-12-23T09:02:50.887Z,26.73
2022-12-23T09:05:53.574Z,25.90
2022-12-23T09:08:56.230Z,25.60
2022-12-23T09:11:58.855Z,24.83
2022-12-23T09:15:01.237Z,26.12
2022-12-23T09:18:03.918Z,25.33
2022-12-23T09:21:10.964Z,26.25
2022-12-23T09:24:13.701Z,30.45
2022-12-23T09:27:16.288Z,23.87
2022-12-23T09:30:19.175Z,24.17
2022-12-23T09:33:21.783Z,24.17
2022-12-23T09:36:24.530Z,27.15
2022-12-23T09:39:26.864Z,26.02
2022-12-23T09:42:48.128Z,24.13
2022-12-23T09:45:53.399Z,24.12
2022-12-23T09:49:02.651Z,25.85
2022-12-23T09:52:13.736Z,25.50
2022-12-23T09:55:18.744Z,27.35
2022-12-23T09:58:35.679Z,25.50
2022-12-23T10:02:04.759Z,24.95
2022-12-23T10:05:46.182Z,22.87
2022-12-23T10:08:53.617Z,23.23
2022-12-23T10:11:57.140Z,22.80
2022-12-23T10:15:02.672Z,23.10
2022-12-23T10:18:28.225Z,23.33
2022-12-23T10:21:37.798Z,22.05
2022-12-23T10:24:47.636Z,20.12
2022-12-23T10:27:50.156Z,23.60
2022-12-23T10:31:31.149Z,21.67
2022-12-23T10:34:48.711Z,22.20
2022-12-23T10:38:03.522Z,22.50
2022-12-23T10:41:15.411Z,23.38
2022-12-23T10:44:24.503Z,22.33
2022-12-23T10:47:51.959Z,24.97
2022-12-23T10:51:01.436Z,23.50
2022-12-23T10:54:12.071Z,23.38
2022-12-23T10:57:16.783Z,22.50
2022-12-23T11:00:23.104Z,25.92
2022-12-23T11:03:30.129Z,24.03
2022-12-23T11:06:37.616Z,26.60
2022-12-23T11:09:54.467Z,25.20
2022-12-23T11:12:56.882Z,25.17
2022-12-23T11:16:32.264Z,26.15
2022-12-23T11:19:34.736Z,24.30
2022-12-23T11:22:49.725Z,25.50
2022-12-23T11:26:00.038Z,27.83
2022-12-23T11:29:10.686Z,24.95
2022-12-23T11:32:20.915Z,29.05
2022-12-23T11:35:30.104Z,28.80
2022-12-23T11:38:33.955Z,28.08
2022-12-23T11:41:40.184Z,28.08
2022-12-23T11:44:51.908Z,28.48
2022-12-23T11:47:56.232Z,28.10
2022-12-23T11:51:04.018Z,28.57
2022-12-23T11:54:06.676Z,27.25
2022-12-23T11:57:19.339Z,28.05
2022-12-23T12:00:36.663Z,28.42
2022-12-23T12:03:48.756Z,27.52
2022-12-23T12:06:56.564Z,26.83
2022-12-23T12:10:01.796Z,28.80
2022-12-23T12:13:08.317Z,29.05
2022-12-23T12:16:22.764Z,28.25
2022-12-23T12:19:57.776Z,28.70
2022-12-23T12:23:09.529Z,28.27
2022-12-23T12:26:23.579Z,28.25
2022-12-23T12:29:38.046Z,26.60
2022-12-23T12:32:46.420Z,27.23
2022-12-23T12:35:57.782Z,29.02
2022-12-23T12:39:02.641Z,26.93
2022-12-23T12:42:14.455Z,26.98
2022-12-23T12:45:22.684Z,28.02
2022-12-23T12:48:32.669Z,26.62
2022-12-23T12:51:46.596Z,28.80
2022-12-23T12:55:01.516Z,26.87
2022-12-23T12:58:03.971Z,27.30
2022-12-23T13:01:22.192Z,26.20
2022-12-23T13:04:30.532Z,24.98
2022-12-23T13:08:02.512Z,26.27
2022-12-23T13:11:33.780Z,25.60
2022-12-23T13:14:59.187Z,27.62
2022-12-23T13:18:21.651Z,25.83
2022-12-23T13:21:38.377Z,24.77
2022-12-23T13:24:58.734Z,25.83
2022-12-23T13:28:54.320Z,23.93
2022-12-23T13:32:27.894Z,23.95
2022-12-23T13:35:39.256Z,26.40
2022-12-23T13:39:00.206Z,25.35
2022-12-23T13:42:06.034Z,24.25
2022-12-23T13:45:17.539Z,21.97
2022-12-23T13:48:47.951Z,24.58
2022-12-23T13:52:11.515Z,25.58
2022-12-23T13:55:29.166Z,25.27
2022-12-23T13:58:32.792Z,25.85
2022-12-23T14:01:47.399Z,23.77
2022-12-23T14:04:59.157Z,23.40
2022-12-23T14:08:06.438Z,24.15
2022-12-23T14:11:09.064Z,25.33
2022-12-23T14:14:57.904Z,25.48
2022-12-23T14:18:48.929Z,24.17
2022-12-23T14:22:13.006Z,24.73
2022-12-23T14:25:45.935Z,23.98
2022-12-23T14:29:09.398Z,24.60
2022-12-23T14:32:44.479Z,24.92
2022-12-23T14:35:46.748Z,24.03
2022-12-23T14:39:11.136Z,24.02
2022-12-23T14:42:32.536Z,25.62
2022-12-23T14:45:42.376Z,23.60
2022-12-23T14:48:44.663Z,23.95
2022-12-23T14:51:50.867Z,25.37
2022-12-23T14:55:21.121Z,26.90
2022-12-23T14:58:20.090Z,25.88
2022-12-23T15:01:34.357Z,27.83
2022-12-23T15:04:46.504Z,28.00
2022-12-23T15:07:49.406Z,26.43
2022-12-23T15:10:52.166Z,27.80
2022-12-23T15:13:57.213Z,28.77
2022-12-23T15:17:00.333Z,26.52
2022-12-23T15:20:23.404Z,30.35
2022-12-23T15:23:26.428Z,28.17
2022-12-23T15:26:32.853Z,24.30
2022-12-23T15:29:35.652Z,26.58
2022-12-23T15:32:41.244Z,25.67
2022-12-23T15:35:44.358Z,25.80
2022-12-23T15:38:46.755Z,27.33
2022-12-23T15:41:49.391Z,25.35
2022-12-23T15:44:51.882Z,26.20
2022-12-23T15:47:55.179Z,25.52
2022-12-23T15:51:11.811Z,27.10
2022-12-23T15:54:23.035Z,25.30
2022-12-23T15:57:28.331Z,26.85
2022-12-23T16:00:41.076Z,27.52
2022-12-23T16:03:51.390Z,26.50
2022-12-23T16:06:55.496Z,27.25
2022-12-23T16:10:02.102Z,31.20
2022-12-23T16:13:04.442Z,28.52
2022-12-23T16:16:29.362Z,28.48
2022-12-23T16:19:43.820Z,28.20
2022-12-23T16:22:50.368Z,26.15
2022-12-23T16:25:53.579Z,36.83
2022-12-23T16:29:00.808Z,27.95
2022-12-23T16:32:03.259Z,28.73
2022-12-23T16:35:12.937Z,26.65
2022-12-23T16:38:33.297Z,27.23
2022-12-23T16:41:36.304Z,27.17
2022-12-23T16:44:39.562Z,26.33
2022-12-23T16:47:42.889Z,26.80
2022-12-23T16:50:46.233Z,26.73
2022-12-23T16:53:57.518Z,27.17
2022-12-23T16:57:00.107Z,26.40
2022-12-23T17:00:02.974Z,26.12
2022-12-23T17:03:07.103Z,28.85
2022-12-23T17:06:14.094Z,28.23
2022-12-23T17:09:16.465Z,28.08
2022-12-23T17:12:19.427Z,27.40
2022-12-23T17:15:24.233Z,28.75
2022-12-23T17:18:26.805Z,29.20
2022-12-23T17:21:33.491Z,29.40
2022-12-23T17:24:36.317Z,29.48
2022-12-23T17:27:40.314Z,28.50
2022-12-23T17:30:42.964Z,28.65
2022-12-23T17:33:45.349Z,28.70
2022-12-23T17:36:50.712Z,28.00
2022-12-23T17:39:53.388Z,27.08
2022-12-23T17:42:56.007Z,26.30
2022-12-23T17:45:58.433Z,27.00
2022-12-23T17:49:01.069Z,28.55
2022-12-23T17:52:06.497Z,30.30
2022-12-23T17:55:24.379Z,28.40
2022-12-23T17:58:26.839Z,27.70
2022-12-23T18:01:31.952Z,29.83
2022-12-23T18:04:34.687Z,28.55
2022-12-23T18:07:36.986Z,24.52
2022-12-23T18:10:40.767Z,26.67
2022-12-23T18:13:43.180Z,26.73
2022-12-23T18:16:46.414Z,27.13
2022-12-23T18:19:49.021Z,27.25
2022-12-23T18:22:53.725Z,27.02
2022-12-23T18:25:57.257Z,28.90
2022-12-23T18:28:59.926Z,28.63
2022-12-23T18:32:02.240Z,25.58
2022-12-23T18:35:22.277Z,26.85
2022-12-23T18:38:24.652Z,27.67
2022-12-23T18:41:28.051Z,25.05
2022-12-23T18:44:30.386Z,25.40
2022-12-23T18:47:33.075Z,26.40
2022-12-23T18:50:38.625Z,24.98
2022-12-23T18:53:41.687Z,26.50
2022-12-23T18:56:44.410Z,28.62
2022-12-23T18:59:47.058Z,28.83
2022-12-23T19:02:50.373Z,31.37
2022-12-23T19:05:55.060Z,29.20
2022-12-23T19:08:57.467Z,28.98
2022-12-23T19:12:00.408Z,30.50
2022-12-23T19:15:02.795Z,29.10
2022-12-23T19:18:05.557Z,28.42
2022-12-23T19:21:09.306Z,29.55
2022-12-23T19:24:12.048Z,28.17
2022-12-23T19:27:14.319Z,28.33
2022-12-23T19:30:18.176Z,27.50
2022-12-23T19:33:20.464Z,28.30
2022-12-23T19:36:23.490Z,28.17
2022-12-23T19:39:27.011Z,28.08
2022-12-23T19:42:30.558Z,28.92
2022-12-23T19:45:32.898Z,29.40
2022-12-23T19:48:36.454Z,27.27
2022-12-23T19:51:38.760Z,28.27
2022-12-23T19:54:41.410Z,29.35
2022-12-23T19:57:43.899Z,28.77
2022-12-23T20:00:46.541Z,29.00
2022-12-23T20:03:50.029Z,27.55
2022-12-23T20:06:52.455Z,28.50
2022-12-23T20:09:55.108Z,31.23
2022-12-23T20:12:57.421Z,29.55
2022-12-23T20:16:00.407Z,28.03
2022-12-23T20:19:03.616Z,28.27
2022-12-23T20:22:06.190Z,29.77
2022-12-23T20:25:08.783Z,29.30
2022-12-23T20:28:11.426Z,30.52
2022-12-23T20:31:22.587Z,30.53
2022-12-23T20:34:25.288Z,31.12
2022-12-23T20:37:27.654Z,29.27
2022-12-23T20:40:30.473Z,30.85
2022-12-23T20:43:34.718Z,30.75
2022-12-23T20:46:37.401Z,31.37
2022-12-23T20:49:39.815Z,30.10
2022-12-23T20:52:42.496Z,29.00
2022-12-23T20:55:44.871Z,29.45
2022-12-23T20:58:56.050Z,31.15
2022-12-23T21:01:59.358Z,27.83
2022-12-23T21:05:02.228Z,28.62
2022-12-23T21:08:04.829Z,28.80
2022-12-23T21:11:07.708Z,29.95
2022-12-23T21:14:10.609Z,30.73
2022-12-23T21:17:13.179Z,27.87
2022-12-23T21:20:15.560Z,24.92
2022-12-23T21:23:18.179Z,27.67
2022-12-23T21:26:23.174Z,27.77
2022-12-23T21:29:26.124Z,28.95
2022-12-23T21:32:28.469Z,27.50
2022-12-23T21:35:31.044Z,28.65
2022-12-23T21:38:39.225Z,29.40
2022-12-23T21:41:42.433Z,27.87
2022-12-23T21:44:44.727Z,28.55
2022-12-23T21:47:47.346Z,27.53
2022-12-23T21:50:49.631Z,24.98
2022-12-23T21:53:54.415Z,27.05
2022-12-23T21:56:56.765Z,27.52
2022-12-23T21:59:59.393Z,26.37
2022-12-23T22:03:01.761Z,25.60
2022-12-23T22:06:12.260Z,23.55
2022-12-23T22:09:19.135Z,27.40
2022-12-23T22:12:21.723Z,24.67
2022-12-23T22:15:24.121Z,27.48
2022-12-23T22:18:26.907Z,29.13
2022-12-23T22:21:31.965Z,26.35
2022-12-23T22:24:34.640Z,27.62
2022-12-23T22:27:37.053Z,25.48
2022-12-23T22:30:39.687Z,28.55
2022-12-23T22:33:42.231Z,29.90
2022-12-23T22:36:45.269Z,27.90
2022-12-23T22:39:47.769Z,30.02
2022-12-23T22:42:50.385Z,28.67
2022-12-23T22:46:00.488Z,29.60
2022-12-23T22:49:03.394Z,26.73
2022-12-23T22:52:05.700Z,28.27
2022-12-23T22:55:08.707Z,28.60
2022-12-23T22:58:11.083Z,29.90
2022-12-23T23:01:33.126Z,28.30
2022-12-23T23:04:35.574Z,27.63
2022-12-23T23:07:39.081Z,27.02
2022-12-23T23:10:41.892Z,27.98
2022-12-23T23:13:44.473Z,26.35
2022-12-23T23:16:47.431Z,25.33
2022-12-23T23:19:51.210Z,24.50
2022-12-23T23:22:53.636Z,23.67
2022-12-23T23:25:56.279Z,24.50
2022-12-23T23:28:58.590Z,25.08
2022-12-23T23:32:01.880Z,25.08
2022-12-23T23:35:10.565Z,25.17
2022-12-23T23:38:13.501Z,28.08
2022-12-23T23:41:20.668Z,27.20
2022-12-23T23:44:25.426Z,27.77
2022-12-23T23:47:27.779Z,28.52
2022-12-23T23:50:30.588Z,27.30
2022-12-23T23:53:33.008Z,25.45
2022-12-23T23:56:38.552Z,25.50
2022-12-23T23:59:41.597Z,24.50
